sensor_id;sensor_type;location;lat;lon;timestamp;pressure;altitude;pressure_sealevel;temperature;humidity
56400;BME280;42298;53.638;9.876;2023-04-24T00:00:36;99776.03;;;16.06;67.79
56400;BME280;42298;53.638;9.876;2023-04-24T00:03:03;99794.69;;;16.06;68.47
56400;BME280;42298;53.638;9.876;2023-04-24T00:05:28;99768.22;;;15.93;68.53
56400;BME280;42298;53.638;9.876;2023-04-24T00:07:54;99774.97;;;15.92;68.94
56400;BME280;42298;53.638;9.876;2023-04-24T00:10:21;99791.81;;;16.02;69.19
56400;BME280;42298;53.638;9.876;2023-04-24T00:12:46;99763.13;;;15.95;69.03
56400;BME280;42298;53.638;9.876;2023-04-24T00:15:12;99749.41;;;15.83;68.88
56400;BME280;42298;53.638;9.876;2023-04-24T00:17:37;99767.28;;;16.04;69.24
56400;BME280;42298;53.638;9.876;2023-04-24T00:20:04;99736.53;;;15.94;69.04
56400;BME280;42298;53.638;9.876;2023-04-24T00:22:32;99714.13;;;15.83;68.78
56400;BME280;42298;53.638;9.876;2023-04-24T00:24:57;99722.69;;;15.97;69.32
56400;BME280;42298;53.638;9.876;2023-04-24T00:27:23;99704.53;;;15.81;69.82
56400;BME280;42298;53.638;9.876;2023-04-24T00:29:48;99695.72;;;15.75;68.88
56400;BME280;42298;53.638;9.876;2023-04-24T00:32:14;99703.94;;;15.68;69.38
56400;BME280;42298;53.638;9.876;2023-04-24T00:34:40;99709.53;;;15.72;69.75
56400;BME280;42298;53.638;9.876;2023-04-24T00:37:06;99719.44;;;15.92;69.30
56400;BME280;42298;53.638;9.876;2023-04-24T00:39:31;99693.25;;;15.70;70.08
56400;BME280;42298;53.638;9.876;2023-04-24T00:41:57;99747.09;;;16.07;69.20
56400;BME280;42298;53.638;9.876;2023-04-24T00:44:22;99719.34;;;15.88;69.77
56400;BME280;42298;53.638;9.876;2023-04-24T00:46:49;99722.94;;;15.89;69.49
56400;BME280;42298;53.638;9.876;2023-04-24T00:49:20;99722.22;;;15.92;69.88
56400;BME280;42298;53.638;9.876;2023-04-24T00:51:46;99710.28;;;15.91;70.17
56400;BME280;42298;53.638;9.876;2023-04-24T00:54:12;99713.56;;;15.97;69.90
56400;BME280;42298;53.638;9.876;2023-04-24T00:56:38;99703.88;;;15.87;69.55
56400;BME280;42298;53.638;9.876;2023-04-24T00:59:04;99687.28;;;15.68;70.30
56400;BME280;42298;53.638;9.876;2023-04-24T01:01:30;99729.78;;;15.95;69.78
56400;BME280;42298;53.638;9.876;2023-04-24T01:03:57;99724.06;;;15.84;70.18
56400;BME280;42298;53.638;9.876;2023-04-24T01:06:23;99700.78;;;15.70;69.79
56400;BME280;42298;53.638;9.876;2023-04-24T01:08:51;99723.78;;;15.70;69.73
56400;BME280;42298;53.638;9.876;2023-04-24T01:11:17;99687.66;;;15.48;69.82
56400;BME280;42298;53.638;9.876;2023-04-24T01:13:43;99703.00;;;15.61;69.32
56400;BME280;42298;53.638;9.876;2023-04-24T01:16:08;99689.94;;;15.42;69.58
56400;BME280;42298;53.638;9.876;2023-04-24T01:18:33;99710.22;;;15.46;69.85
56400;BME280;42298;53.638;9.876;2023-04-24T01:20:59;99741.41;;;15.59;69.62
56400;BME280;42298;53.638;9.876;2023-04-24T01:23:28;99704.84;;;15.34;69.59
56400;BME280;42298;53.638;9.876;2023-04-24T01:25:53;99711.97;;;15.35;69.50
56400;BME280;42298;53.638;9.876;2023-04-24T01:28:20;99734.91;;;15.51;69.75
56400;BME280;42298;53.638;9.876;2023-04-24T01:30:48;99729.81;;;15.53;69.19
56400;BME280;42298;53.638;9.876;2023-04-24T01:33:13;99698.72;;;15.44;69.21
56400;BME280;42298;53.638;9.876;2023-04-24T01:35:39;99699.81;;;15.40;69.61
56400;BME280;42298;53.638;9.876;2023-04-24T01:38:05;99698.34;;;15.26;69.66
56400;BME280;42298;53.638;9.876;2023-04-24T01:40:31;99712.72;;;15.32;69.89
56400;BME280;42298;53.638;9.876;2023-04-24T01:42:57;99691.84;;;15.19;69.74
56400;BME280;42298;53.638;9.876;2023-04-24T01:45:22;99711.13;;;15.31;70.09
56400;BME280;42298;53.638;9.876;2023-04-24T01:47:49;99666.81;;;15.15;69.46
56400;BME280;42298;53.638;9.876;2023-04-24T01:50:15;99716.03;;;15.38;69.73
56400;BME280;42298;53.638;9.876;2023-04-24T01:52:41;99718.44;;;15.39;69.93
56400;BME280;42298;53.638;9.876;2023-04-24T01:55:07;99717.28;;;15.40;69.91
56400;BME280;42298;53.638;9.876;2023-04-24T01:57:33;99682.28;;;15.16;69.61
56400;BME280;42298;53.638;9.876;2023-04-24T01:59:59;99692.06;;;15.29;69.41
56400;BME280;42298;53.638;9.876;2023-04-24T02:02:24;99711.72;;;15.40;69.35
56400;BME280;42298;53.638;9.876;2023-04-24T02:04:55;99669.50;;;15.12;69.30
56400;BME280;42298;53.638;9.876;2023-04-24T02:07:21;99649.47;;;14.99;69.58
56400;BME280;42298;53.638;9.876;2023-04-24T02:09:47;99682.22;;;15.13;68.88
56400;BME280;42298;53.638;9.876;2023-04-24T02:12:14;99694.41;;;15.27;68.87
56400;BME280;42298;53.638;9.876;2023-04-24T02:14:40;99666.81;;;14.96;68.98
56400;BME280;42298;53.638;9.876;2023-04-24T02:17:05;99666.47;;;14.98;68.64
56400;BME280;42298;53.638;9.876;2023-04-24T02:19:31;99637.84;;;14.75;68.45
56400;BME280;42298;53.638;9.876;2023-04-24T02:21:57;99659.78;;;14.64;68.91
56400;BME280;42298;53.638;9.876;2023-04-24T02:24:22;99662.06;;;14.59;68.57
56400;BME280;42298;53.638;9.876;2023-04-24T02:26:47;99683.00;;;14.75;68.99
56400;BME280;42298;53.638;9.876;2023-04-24T02:29:13;99663.50;;;14.53;68.60
56400;BME280;42298;53.638;9.876;2023-04-24T02:31:38;99687.28;;;14.73;68.65
56400;BME280;42298;53.638;9.876;2023-04-24T02:34:03;99659.84;;;14.49;68.72
56400;BME280;42298;53.638;9.876;2023-04-24T02:36:29;99660.91;;;14.44;68.02
56400;BME280;42298;53.638;9.876;2023-04-24T02:38:55;99681.88;;;14.61;68.17
56400;BME280;42298;53.638;9.876;2023-04-24T02:41:20;99668.72;;;14.39;67.36
56400;BME280;42298;53.638;9.876;2023-04-24T02:43:46;99679.06;;;14.42;68.16
56400;BME280;42298;53.638;9.876;2023-04-24T02:46:11;99693.06;;;14.49;67.74
56400;BME280;42298;53.638;9.876;2023-04-24T02:48:36;99658.78;;;14.22;67.47
56400;BME280;42298;53.638;9.876;2023-04-24T02:51:02;99665.88;;;14.35;67.72
56400;BME280;42298;53.638;9.876;2023-04-24T02:53:28;99659.88;;;14.33;67.05
56400;BME280;42298;53.638;9.876;2023-04-24T02:55:56;99683.16;;;14.48;67.43
56400;BME280;42298;53.638;9.876;2023-04-24T02:58:21;99685.06;;;14.44;67.46
56400;BME280;42298;53.638;9.876;2023-04-24T03:00:46;99638.09;;;14.16;67.85
56400;BME280;42298;53.638;9.876;2023-04-24T03:03:12;99678.06;;;14.50;67.73
56400;BME280;42298;53.638;9.876;2023-04-24T03:05:38;99665.59;;;14.40;67.32
56400;BME280;42298;53.638;9.876;2023-04-24T03:08:04;99658.88;;;14.41;67.86
56400;BME280;42298;53.638;9.876;2023-04-24T03:10:29;99629.72;;;14.13;68.27
56400;BME280;42298;53.638;9.876;2023-04-24T03:12:55;99680.88;;;14.34;68.80
56400;BME280;42298;53.638;9.876;2023-04-24T03:15:20;99647.47;;;14.12;68.74
56400;BME280;42298;53.638;9.876;2023-04-24T03:17:45;99673.66;;;14.30;68.69
56400;BME280;42298;53.638;9.876;2023-04-24T03:20:11;99669.25;;;14.13;70.20
56400;BME280;42298;53.638;9.876;2023-04-24T03:22:37;99678.91;;;14.19;69.85
56400;BME280;42298;53.638;9.876;2023-04-24T03:25:02;99637.66;;;13.99;69.37
56400;BME280;42298;53.638;9.876;2023-04-24T03:27:28;99649.47;;;13.96;70.29
56400;BME280;42298;53.638;9.876;2023-04-24T03:29:53;99668.38;;;13.94;70.29
56400;BME280;42298;53.638;9.876;2023-04-24T03:32:21;99691.25;;;14.06;70.48
56400;BME280;42298;53.638;9.876;2023-04-24T03:34:50;99649.38;;;13.77;70.00
56400;BME280;42298;53.638;9.876;2023-04-24T03:37:16;99649.28;;;13.73;70.06
56400;BME280;42298;53.638;9.876;2023-04-24T03:39:41;99663.75;;;13.82;70.23
56400;BME280;42298;53.638;9.876;2023-04-24T03:42:07;99640.47;;;13.68;69.88
56400;BME280;42298;53.638;9.876;2023-04-24T03:44:33;99656.25;;;13.67;70.33
56400;BME280;42298;53.638;9.876;2023-04-24T03:46:59;99650.19;;;13.62;69.96
56400;BME280;42298;53.638;9.876;2023-04-24T03:49:24;99665.44;;;13.71;69.55
56400;BME280;42298;53.638;9.876;2023-04-24T03:51:50;99662.50;;;13.64;69.75
56400;BME280;42298;53.638;9.876;2023-04-24T03:54:17;99636.78;;;13.48;69.43
56400;BME280;42298;53.638;9.876;2023-04-24T03:56:42;99639.44;;;13.44;69.20
56400;BME280;42298;53.638;9.876;2023-04-24T03:59:08;99635.63;;;13.49;69.24
56400;BME280;42298;53.638;9.876;2023-04-24T04:01:34;99654.72;;;13.54;68.70
56400;BME280;42298;53.638;9.876;2023-04-24T04:04:02;99636.44;;;13.50;68.68
56400;BME280;42298;53.638;9.876;2023-04-24T04:06:28;99637.66;;;13.36;68.05
56400;BME280;42298;53.638;9.876;2023-04-24T04:08:53;99648.81;;;13.40;67.91
56400;BME280;42298;53.638;9.876;2023-04-24T04:11:19;99632.94;;;13.37;67.42
56400;BME280;42298;53.638;9.876;2023-04-24T04:13:45;99619.28;;;13.28;67.48
56400;BME280;42298;53.638;9.876;2023-04-24T04:16:13;99632.94;;;13.37;66.93
56400;BME280;42298;53.638;9.876;2023-04-24T04:18:38;99652.22;;;13.49;67.22
56400;BME280;42298;53.638;9.876;2023-04-24T04:21:05;99649.97;;;13.55;67.00
56400;BME280;42298;53.638;9.876;2023-04-24T04:23:30;99626.59;;;13.36;66.69
56400;BME280;42298;53.638;9.876;2023-04-24T04:25:58;99628.50;;;13.48;65.61
56400;BME280;42298;53.638;9.876;2023-04-24T04:28:23;99657.13;;;13.56;65.95
56400;BME280;42298;53.638;9.876;2023-04-24T04:30:50;99670.69;;;13.61;65.79
56400;BME280;42298;53.638;9.876;2023-04-24T04:33:19;99625.97;;;13.27;66.24
56400;BME280;42298;53.638;9.876;2023-04-24T04:35:45;99651.41;;;13.48;65.35
56400;BME280;42298;53.638;9.876;2023-04-24T04:38:14;99655.09;;;13.53;65.46
56400;BME280;42298;53.638;9.876;2023-04-24T04:40:43;99646.72;;;13.65;64.99
56400;BME280;42298;53.638;9.876;2023-04-24T04:43:08;99662.94;;;13.82;65.07
56400;BME280;42298;53.638;9.876;2023-04-24T04:45:35;99659.09;;;14.17;63.97
56400;BME280;42298;53.638;9.876;2023-04-24T04:48:01;99686.06;;;14.70;62.62
56400;BME280;42298;53.638;9.876;2023-04-24T04:50:27;99657.25;;;15.13;60.47
56400;BME280;42298;53.638;9.876;2023-04-24T04:52:52;99658.53;;;15.57;58.33
56400;BME280;42298;53.638;9.876;2023-04-24T04:55:18;99677.28;;;15.86;58.83
56400;BME280;42298;53.638;9.876;2023-04-24T04:57:45;99645.13;;;15.63;57.72
56400;BME280;42298;53.638;9.876;2023-04-24T05:00:12;99652.66;;;15.40;58.03
56400;BME280;42298;53.638;9.876;2023-04-24T05:02:40;99675.47;;;15.33;58.45
56400;BME280;42298;53.638;9.876;2023-04-24T05:05:06;99652.97;;;14.96;58.75
56400;BME280;42298;53.638;9.876;2023-04-24T05:07:32;99682.13;;;15.09;59.28
56400;BME280;42298;53.638;9.876;2023-04-24T05:09:57;99671.41;;;15.27;58.90
56400;BME280;42298;53.638;9.876;2023-04-24T05:12:23;99647.97;;;15.44;58.48
56400;BME280;42298;53.638;9.876;2023-04-24T05:14:49;99638.50;;;16.16;56.69
56400;BME280;42298;53.638;9.876;2023-04-24T05:17:15;99651.72;;;16.78;55.13
56400;BME280;42298;53.638;9.876;2023-04-24T05:19:41;99671.75;;;17.53;53.90
56400;BME280;42298;53.638;9.876;2023-04-24T05:22:07;99653.94;;;18.08;52.24
56400;BME280;42298;53.638;9.876;2023-04-24T05:24:33;99654.81;;;18.70;51.00
56400;BME280;42298;53.638;9.876;2023-04-24T05:26:59;99671.97;;;18.72;49.71
56400;BME280;42298;53.638;9.876;2023-04-24T05:29:25;99666.63;;;18.53;50.16
56400;BME280;42298;53.638;9.876;2023-04-24T05:31:51;99657.94;;;18.65;49.51
56400;BME280;42298;53.638;9.876;2023-04-24T05:34:17;99671.03;;;18.54;49.96
56400;BME280;42298;53.638;9.876;2023-04-24T05:36:43;99676.03;;;18.31;50.47
56400;BME280;42298;53.638;9.876;2023-04-24T05:39:08;99655.97;;;17.68;49.62
56400;BME280;42298;53.638;9.876;2023-04-24T05:41:34;99679.03;;;17.32;51.50
56400;BME280;42298;53.638;9.876;2023-04-24T05:43:59;99679.38;;;17.27;52.89
56400;BME280;42298;53.638;9.876;2023-04-24T05:46:25;99661.41;;;17.54;52.37
56400;BME280;42298;53.638;9.876;2023-04-24T05:48:50;99657.84;;;17.97;51.89
56400;BME280;42298;53.638;9.876;2023-04-24T05:51:15;99692.38;;;18.93;49.90
56400;BME280;42298;53.638;9.876;2023-04-24T05:53:41;99652.72;;;19.39;47.92
56400;BME280;42298;53.638;9.876;2023-04-24T05:56:06;99689.84;;;19.53;48.10
56400;BME280;42298;53.638;9.876;2023-04-24T05:58:31;99656.00;;;19.79;46.20
56400;BME280;42298;53.638;9.876;2023-04-24T06:00:57;99655.22;;;19.86;46.95
56400;BME280;42298;53.638;9.876;2023-04-24T06:03:24;99659.16;;;19.67;45.49
56400;BME280;42298;53.638;9.876;2023-04-24T06:05:50;99689.97;;;20.09;46.20
56400;BME280;42298;53.638;9.876;2023-04-24T06:08:16;99670.41;;;20.30;46.01
56400;BME280;42298;53.638;9.876;2023-04-24T06:10:41;99677.16;;;20.12;45.58
56400;BME280;42298;53.638;9.876;2023-04-24T06:13:07;99658.38;;;19.70;45.33
56400;BME280;42298;53.638;9.876;2023-04-24T06:15:33;99659.94;;;19.47;46.52
56400;BME280;42298;53.638;9.876;2023-04-24T06:17:59;99677.50;;;19.54;46.72
56400;BME280;42298;53.638;9.876;2023-04-24T06:20:24;99696.66;;;19.59;46.50
56400;BME280;42298;53.638;9.876;2023-04-24T06:22:50;99661.81;;;19.18;46.21
56400;BME280;42298;53.638;9.876;2023-04-24T06:25:15;99665.41;;;19.26;46.75
56400;BME280;42298;53.638;9.876;2023-04-24T06:27:41;99711.41;;;19.53;45.72
56400;BME280;42298;53.638;9.876;2023-04-24T06:30:07;99664.75;;;19.57;46.19
56400;BME280;42298;53.638;9.876;2023-04-24T06:32:32;99692.75;;;20.02;45.84
56400;BME280;42298;53.638;9.876;2023-04-24T06:34:59;99674.75;;;19.65;44.58
56400;BME280;42298;53.638;9.876;2023-04-24T06:37:24;99673.13;;;19.67;46.01
56400;BME280;42298;53.638;9.876;2023-04-24T06:39:51;99685.09;;;19.61;46.07
56400;BME280;42298;53.638;9.876;2023-04-24T06:42:16;99684.34;;;19.85;45.00
56400;BME280;42298;53.638;9.876;2023-04-24T06:44:42;99663.16;;;19.66;44.97
56400;BME280;42298;53.638;9.876;2023-04-24T06:47:08;99683.16;;;19.96;44.92
56400;BME280;42298;53.638;9.876;2023-04-24T06:49:37;99709.09;;;19.79;44.39
56400;BME280;42298;53.638;9.876;2023-04-24T06:52:03;99695.06;;;19.51;46.06
56400;BME280;42298;53.638;9.876;2023-04-24T06:54:29;99668.69;;;19.38;46.41
56400;BME280;42298;53.638;9.876;2023-04-24T06:56:54;99692.91;;;19.17;47.15
56400;BME280;42298;53.638;9.876;2023-04-24T06:59:20;99672.84;;;18.90;45.79
56400;BME280;42298;53.638;9.876;2023-04-24T07:01:45;99679.94;;;18.73;46.68
56400;BME280;42298;53.638;9.876;2023-04-24T07:04:11;99680.03;;;18.91;47.19
56400;BME280;42298;53.638;9.876;2023-04-24T07:06:38;99671.22;;;18.89;46.79
56400;BME280;42298;53.638;9.876;2023-04-24T07:09:04;99699.41;;;19.38;47.16
56400;BME280;42298;53.638;9.876;2023-04-24T07:11:29;99676.31;;;19.55;46.36
56400;BME280;42298;53.638;9.876;2023-04-24T07:13:55;99671.56;;;20.01;45.57
56400;BME280;42298;53.638;9.876;2023-04-24T07:16:21;99692.72;;;19.88;45.04
56400;BME280;42298;53.638;9.876;2023-04-24T07:18:46;99695.47;;;19.60;46.09
56400;BME280;42298;53.638;9.876;2023-04-24T07:21:12;99668.72;;;19.59;46.05
56400;BME280;42298;53.638;9.876;2023-04-24T07:23:38;99675.88;;;19.46;46.57
56400;BME280;42298;53.638;9.876;2023-04-24T07:26:06;99667.09;;;19.34;46.59
56400;BME280;42298;53.638;9.876;2023-04-24T07:28:32;99667.41;;;19.25;46.26
56400;BME280;42298;53.638;9.876;2023-04-24T07:30:58;99676.69;;;19.47;45.67
56400;BME280;42298;53.638;9.876;2023-04-24T07:33:25;99679.91;;;19.49;44.63
56400;BME280;42298;53.638;9.876;2023-04-24T07:35:50;99686.66;;;19.48;45.13
56400;BME280;42298;53.638;9.876;2023-04-24T07:38:17;99690.28;;;19.55;44.78
56400;BME280;42298;53.638;9.876;2023-04-24T07:40:45;99708.22;;;19.54;45.61
56400;BME280;42298;53.638;9.876;2023-04-24T07:43:10;99708.34;;;18.96;45.54
56400;BME280;42298;53.638;9.876;2023-04-24T07:45:36;99692.84;;;18.38;47.15
56400;BME280;42298;53.638;9.876;2023-04-24T07:48:02;99704.47;;;18.03;48.27
56400;BME280;42298;53.638;9.876;2023-04-24T07:50:28;99694.34;;;17.85;49.59
56400;BME280;42298;53.638;9.876;2023-04-24T07:52:53;99706.94;;;17.72;48.65
56400;BME280;42298;53.638;9.876;2023-04-24T07:55:18;99732.47;;;17.77;49.69
56400;BME280;42298;53.638;9.876;2023-04-24T07:57:44;99712.06;;;17.33;49.54
56400;BME280;42298;53.638;9.876;2023-04-24T08:00:10;99726.25;;;17.25;50.48
56400;BME280;42298;53.638;9.876;2023-04-24T08:02:37;99728.78;;;17.37;50.44
56400;BME280;42298;53.638;9.876;2023-04-24T08:05:03;99732.81;;;17.09;50.33
56400;BME280;42298;53.638;9.876;2023-04-24T08:07:28;99745.72;;;16.95;51.15
56400;BME280;42298;53.638;9.876;2023-04-24T08:09:54;99725.59;;;16.75;51.06
56400;BME280;42298;53.638;9.876;2023-04-24T08:12:19;99745.19;;;16.86;50.79
56400;BME280;42298;53.638;9.876;2023-04-24T08:14:45;99721.38;;;16.88;51.06
56400;BME280;42298;53.638;9.876;2023-04-24T08:17:10;99712.34;;;16.65;50.91
56400;BME280;42298;53.638;9.876;2023-04-24T08:19:35;99730.31;;;16.75;50.73
56400;BME280;42298;53.638;9.876;2023-04-24T08:22:01;99725.16;;;16.47;51.15
56400;BME280;42298;53.638;9.876;2023-04-24T08:24:26;99730.88;;;16.58;51.75
56400;BME280;42298;53.638;9.876;2023-04-24T08:26:52;99751.88;;;16.81;50.28
56400;BME280;42298;53.638;9.876;2023-04-24T08:29:19;99752.31;;;16.83;50.76
56400;BME280;42298;53.638;9.876;2023-04-24T08:31:44;99738.72;;;16.78;51.01
56400;BME280;42298;53.638;9.876;2023-04-24T08:34:10;99756.09;;;16.72;49.93
56400;BME280;42298;53.638;9.876;2023-04-24T08:36:36;99712.78;;;16.45;50.03
56400;BME280;42298;53.638;9.876;2023-04-24T08:39:02;99751.47;;;16.53;50.66
56400;BME280;42298;53.638;9.876;2023-04-24T08:41:27;99736.16;;;16.40;51.57
56400;BME280;42298;53.638;9.876;2023-04-24T08:43:53;99742.69;;;16.51;50.64
56400;BME280;42298;53.638;9.876;2023-04-24T08:46:20;99763.81;;;16.82;50.61
56400;BME280;42298;53.638;9.876;2023-04-24T08:48:46;99767.75;;;16.81;50.85
56400;BME280;42298;53.638;9.876;2023-04-24T08:51:11;99767.28;;;16.75;50.76
56400;BME280;42298;53.638;9.876;2023-04-24T08:53:38;99741.25;;;16.61;51.71
56400;BME280;42298;53.638;9.876;2023-04-24T08:56:03;99771.56;;;16.69;51.64
56400;BME280;42298;53.638;9.876;2023-04-24T08:58:29;99749.97;;;16.59;52.55
56400;BME280;42298;53.638;9.876;2023-04-24T09:00:55;99743.06;;;16.50;51.47
56400;BME280;42298;53.638;9.876;2023-04-24T09:03:21;99769.47;;;16.63;52.04
56400;BME280;42298;53.638;9.876;2023-04-24T09:05:48;99753.06;;;16.54;52.12
56400;BME280;42298;53.638;9.876;2023-04-24T09:08:16;99768.34;;;16.67;52.29
56400;BME280;42298;53.638;9.876;2023-04-24T09:10:42;99755.84;;;16.54;52.31
56400;BME280;42298;53.638;9.876;2023-04-24T09:13:09;99751.31;;;16.46;52.37
56400;BME280;42298;53.638;9.876;2023-04-24T09:15:36;99755.06;;;16.31;52.51
56400;BME280;42298;53.638;9.876;2023-04-24T09:18:01;99750.41;;;16.39;52.39
56400;BME280;42298;53.638;9.876;2023-04-24T09:20:27;99769.84;;;16.61;52.35
56400;BME280;42298;53.638;9.876;2023-04-24T09:22:57;99777.63;;;16.52;52.34
56400;BME280;42298;53.638;9.876;2023-04-24T09:25:22;99761.66;;;16.23;52.61
56400;BME280;42298;53.638;9.876;2023-04-24T09:27:48;99767.31;;;16.30;52.89
56400;BME280;42298;53.638;9.876;2023-04-24T09:30:20;99770.03;;;16.49;53.35
56400;BME280;42298;53.638;9.876;2023-04-24T09:32:46;99792.97;;;16.65;52.65
56400;BME280;42298;53.638;9.876;2023-04-24T09:35:13;99779.38;;;16.60;52.32
56400;BME280;42298;53.638;9.876;2023-04-24T09:37:43;99803.75;;;16.96;52.77
56400;BME280;42298;53.638;9.876;2023-04-24T09:40:16;99783.81;;;16.91;51.95
56400;BME280;42298;53.638;9.876;2023-04-24T09:42:46;99781.66;;;17.07;51.02
56400;BME280;42298;53.638;9.876;2023-04-24T09:45:16;99749.25;;;17.22;51.00
56400;BME280;42298;53.638;9.876;2023-04-24T09:47:41;99804.06;;;17.44;50.10
56400;BME280;42298;53.638;9.876;2023-04-24T09:50:11;99799.72;;;17.46;50.89
56400;BME280;42298;53.638;9.876;2023-04-24T09:52:41;99766.69;;;17.45;50.39
56400;BME280;42298;53.638;9.876;2023-04-24T09:55:16;99769.56;;;17.22;50.09
56400;BME280;42298;53.638;9.876;2023-04-24T09:57:55;99759.94;;;17.16;50.85
56400;BME280;42298;53.638;9.876;2023-04-24T10:00:32;99773.09;;;17.19;50.12
56400;BME280;42298;53.638;9.876;2023-04-24T10:03:02;99786.38;;;17.33;50.57
56400;BME280;42298;53.638;9.876;2023-04-24T10:05:32;99776.91;;;17.07;51.29
56400;BME280;42298;53.638;9.876;2023-04-24T10:08:06;99789.84;;;16.96;51.17
56400;BME280;42298;53.638;9.876;2023-04-24T10:10:33;99772.41;;;16.47;51.77
56400;BME280;42298;53.638;9.876;2023-04-24T10:13:00;99814.88;;;16.48;52.56
56400;BME280;42298;53.638;9.876;2023-04-24T10:15:27;99781.50;;;16.44;52.82
56400;BME280;42298;53.638;9.876;2023-04-24T10:17:52;99780.75;;;16.47;52.58
56400;BME280;42298;53.638;9.876;2023-04-24T10:20:24;99787.69;;;16.60;52.53
56400;BME280;42298;53.638;9.876;2023-04-24T10:22:51;99785.16;;;16.74;52.45
56400;BME280;42298;53.638;9.876;2023-04-24T10:25:19;99792.75;;;16.77;51.96
56400;BME280;42298;53.638;9.876;2023-04-24T10:27:45;99825.16;;;16.92;51.57
56400;BME280;42298;53.638;9.876;2023-04-24T10:30:12;99826.84;;;17.00;51.68
56400;BME280;42298;53.638;9.876;2023-04-24T10:32:37;99794.88;;;16.87;51.36
56400;BME280;42298;53.638;9.876;2023-04-24T10:35:07;99827.38;;;17.09;51.10
56400;BME280;42298;53.638;9.876;2023-04-24T10:37:48;99811.28;;;16.96;50.89
56400;BME280;42298;53.638;9.876;2023-04-24T10:40:35;99784.81;;;16.79;51.56
56400;BME280;42298;53.638;9.876;2023-04-24T10:43:08;99807.41;;;16.74;50.92
56400;BME280;42298;53.638;9.876;2023-04-24T10:45:36;99805.00;;;16.73;51.33
56400;BME280;42298;53.638;9.876;2023-04-24T10:48:04;99773.47;;;16.91;50.87
56400;BME280;42298;53.638;9.876;2023-04-24T10:50:44;99800.44;;;17.13;50.41
56400;BME280;42298;53.638;9.876;2023-04-24T10:53:19;99788.94;;;17.15;49.56
56400;BME280;42298;53.638;9.876;2023-04-24T10:55:52;99785.25;;;17.07;49.78
56400;BME280;42298;53.638;9.876;2023-04-24T10:58:23;99786.38;;;17.03;51.04
56400;BME280;42298;53.638;9.876;2023-04-24T11:00:59;99804.44;;;17.16;49.12
56400;BME280;42298;53.638;9.876;2023-04-24T11:03:27;99796.06;;;16.86;49.92
56400;BME280;42298;53.638;9.876;2023-04-24T11:06:02;99785.09;;;16.71;50.29
56400;BME280;42298;53.638;9.876;2023-04-24T11:08:37;99838.63;;;16.90;50.30
56400;BME280;42298;53.638;9.876;2023-04-24T11:19:05;99823.16;;;16.67;50.62
56400;BME280;42298;53.638;9.876;2023-04-24T11:21:33;99834.13;;;16.82;50.87
56400;BME280;42298;53.638;9.876;2023-04-24T11:24:28;99816.59;;;16.78;51.07
56400;BME280;42298;53.638;9.876;2023-04-24T11:27:07;99792.25;;;16.46;50.88
56400;BME280;42298;53.638;9.876;2023-04-24T11:32:34;99818.78;;;16.43;51.21
56400;BME280;42298;53.638;9.876;2023-04-24T11:35:21;99837.25;;;16.55;51.99
56400;BME280;42298;53.638;9.876;2023-04-24T11:37:51;99821.50;;;16.62;51.24
56400;BME280;42298;53.638;9.876;2023-04-24T11:40:18;99785.22;;;16.55;51.26
56400;BME280;42298;53.638;9.876;2023-04-24T11:42:53;99797.09;;;16.52;50.46
56400;BME280;42298;53.638;9.876;2023-04-24T11:45:26;99798.66;;;16.50;50.53
56400;BME280;42298;53.638;9.876;2023-04-24T11:47:52;99845.38;;;16.89;50.90
56400;BME280;42298;53.638;9.876;2023-04-24T11:50:21;99841.31;;;17.09;50.71
56400;BME280;42298;53.638;9.876;2023-04-24T11:52:48;99801.81;;;17.00;49.64
56400;BME280;42298;53.638;9.876;2023-04-24T11:57:41;99842.50;;;17.38;49.25
56400;BME280;42298;53.638;9.876;2023-04-24T12:00:15;99828.78;;;17.23;49.54
56400;BME280;42298;53.638;9.876;2023-04-24T12:02:41;99826.06;;;17.00;50.09
56400;BME280;42298;53.638;9.876;2023-04-24T12:05:06;99847.56;;;17.29;49.96
56400;BME280;42298;53.638;9.876;2023-04-24T12:07:40;99796.78;;;17.09;49.88
56400;BME280;42298;53.638;9.876;2023-04-24T12:10:08;99811.66;;;17.21;49.74
56400;BME280;42298;53.638;9.876;2023-04-24T12:12:34;99817.00;;;17.33;49.64
56400;BME280;42298;53.638;9.876;2023-04-24T12:15:05;99830.25;;;17.43;48.77
56400;BME280;42298;53.638;9.876;2023-04-24T12:17:32;99816.84;;;17.22;48.26
56400;BME280;42298;53.638;9.876;2023-04-24T12:20:03;99810.00;;;17.16;48.62
56400;BME280;42298;53.638;9.876;2023-04-24T12:25:11;99812.25;;;16.81;48.89
56400;BME280;42298;53.638;9.876;2023-04-24T12:27:36;99813.50;;;16.38;49.42
56400;BME280;42298;53.638;9.876;2023-04-24T12:30:04;99851.38;;;16.69;50.27
56400;BME280;42298;53.638;9.876;2023-04-24T12:32:29;99804.19;;;16.27;49.67
56400;BME280;42298;53.638;9.876;2023-04-24T12:34:55;99841.88;;;16.47;49.99
56400;BME280;42298;53.638;9.876;2023-04-24T12:37:23;99845.69;;;16.39;50.59
56400;BME280;42298;53.638;9.876;2023-04-24T12:40:09;99837.53;;;16.27;50.21
56400;BME280;42298;53.638;9.876;2023-04-24T12:42:36;99813.63;;;16.23;50.75
56400;BME280;42298;53.638;9.876;2023-04-24T12:45:07;99827.31;;;16.12;51.37
56400;BME280;42298;53.638;9.876;2023-04-24T12:47:33;99826.50;;;15.89;51.64
56400;BME280;42298;53.638;9.876;2023-04-24T12:49:59;99825.34;;;15.71;52.67
56400;BME280;42298;53.638;9.876;2023-04-24T12:52:26;99817.28;;;15.66;52.13
56400;BME280;42298;53.638;9.876;2023-04-24T12:54:53;99834.00;;;15.89;52.22
56400;BME280;42298;53.638;9.876;2023-04-24T12:57:19;99853.69;;;15.80;52.86
56400;BME280;42298;53.638;9.876;2023-04-24T12:59:45;99834.69;;;15.63;52.86
56400;BME280;42298;53.638;9.876;2023-04-24T13:02:11;99824.31;;;15.60;53.46
56400;BME280;42298;53.638;9.876;2023-04-24T13:04:36;99872.97;;;15.92;54.42
56400;BME280;42298;53.638;9.876;2023-04-24T13:07:02;99868.28;;;15.96;54.85
56400;BME280;42298;53.638;9.876;2023-04-24T13:09:28;99873.09;;;15.99;55.55
56400;BME280;42298;53.638;9.876;2023-04-24T13:11:54;99830.72;;;15.64;55.99
56400;BME280;42298;53.638;9.876;2023-04-24T13:14:19;99855.19;;;15.78;56.60